sensor_id;sensor_type;location;lat;lon;timestamp;pressure;altitude;pressure_sealevel;temperature;humidity
19797;BME280;10058;57.654;12.044;2023-11-22T00:01:19;102303.63;;;4.50;100.00
19797;BME280;10058;57.654;12.044;2023-11-22T00:03:44;102307.63;;;4.57;100.00
19797;BME280;10058;57.654;12.044;2023-11-22T00:06:09;102309.09;;;4.53;100.00
19797;BME280;10058;57.654;12.044;2023-11-22T00:08:35;102304.75;;;4.42;100.00
19797;BME280;10058;57.654;12.044;2023-11-22T00:11:00;102300.06;;;4.38;100.00
19797;BME280;10058;57.654;12.044;2023-11-22T00:13:25;102308.81;;;4.27;100.00
19797;BME280;10058;57.654;12.044;2023-11-22T00:15:50;102305.81;;;4.22;100.00
19797;BME280;10058;57.654;12.044;2023-11-22T00:18:16;102305.78;;;4.10;100.00
19797;BME280;10058;57.654;12.044;2023-11-22T00:20:41;102304.41;;;4.04;100.00
19797;BME280;10058;57.654;12.044;2023-11-22T00:23:06;102309.88;;;4.07;100.00
19797;BME280;10058;57.654;12.044;2023-11-22T00:25:31;102302.81;;;4.06;100.00
19797;BME280;10058;57.654;12.044;2023-11-22T00:27:57;102296.38;;;4.12;100.00
19797;BME280;10058;57.654;12.044;2023-11-22T00:30:22;102295.13;;;4.19;100.00
19797;BME280;10058;57.654;12.044;2023-11-22T00:32:48;102274.41;;;4.10;100.00
19797;BME280;10058;57.654;12.044;2023-11-22T00:35:14;102268.25;;;4.10;100.00
19797;BME280;10058;57.654;12.044;2023-11-22T00:37:39;102278.19;;;3.92;100.00
19797;BME280;10058;57.654;12.044;2023-11-22T00:40:05;102275.75;;;4.05;100.00
19797;BME280;10058;57.654;12.044;2023-11-22T00:42:35;102280.47;;;3.99;100.00
19797;BME280;10058;57.654;12.044;2023-11-22T00:45:01;102269.34;;;4.02;100.00
19797;BME280;10058;57.654;12.044;2023-11-22T00:47:26;102269.16;;;4.10;100.00
19797;BME280;10058;57.654;12.044;2023-11-22T00:49:51;102268.50;;;4.25;100.00
19797;BME280;10058;57.654;12.044;2023-11-22T00:52:17;102262.13;;;4.21;100.00
19797;BME280;10058;57.654;12.044;2023-11-22T00:54:42;102252.91;;;4.14;100.00
19797;BME280;10058;57.654;12.044;2023-11-22T00:57:07;102247.19;;;4.08;100.00
19797;BME280;10058;57.654;12.044;2023-11-22T00:59:32;102255.72;;;4.06;100.00
19797;BME280;10058;57.654;12.044;2023-11-22T01:01:58;102246.41;;;4.09;100.00
19797;BME280;10058;57.654;12.044;2023-11-22T01:04:23;102238.00;;;4.13;100.00
19797;BME280;10058;57.654;12.044;2023-11-22T01:06:48;102242.44;;;4.14;100.00
19797;BME280;10058;57.654;12.044;2023-11-22T01:09:14;102251.22;;;4.15;100.00
19797;BME280;10058;57.654;12.044;2023-11-22T01:11:39;102256.31;;;4.13;100.00
19797;BME280;10058;57.654;12.044;2023-11-22T01:14:04;102254.16;;;4.19;100.00
19797;BME280;10058;57.654;12.044;2023-11-22T01:16:30;102211.34;;;3.96;100.00
19797;BME280;10058;57.654;12.044;2023-11-22T01:18:55;102266.78;;;4.13;100.00
19797;BME280;10058;57.654;12.044;2023-11-22T01:21:20;102260.97;;;4.17;100.00
19797;BME280;10058;57.654;12.044;2023-11-22T01:23:46;102271.91;;;4.24;100.00
19797;BME280;10058;57.654;12.044;2023-11-22T01:26:11;102264.16;;;4.13;100.00
19797;BME280;10058;57.654;12.044;2023-11-22T01:28:37;102269.41;;;4.13;100.00
19797;BME280;10058;57.654;12.044;2023-11-22T01:31:02;102272.75;;;4.01;100.00
19797;BME280;10058;57.654;12.044;2023-11-22T01:33:27;102269.41;;;4.13;100.00
19797;BME280;10058;57.654;12.044;2023-11-22T01:35:52;102274.63;;;4.13;100.00
19797;BME280;10058;57.654;12.044;2023-11-22T01:38:18;102279.28;;;4.17;100.00
19797;BME280;10058;57.654;12.044;2023-11-22T01:40:46;102272.31;;;4.06;100.00
19797;BME280;10058;57.654;12.044;2023-11-22T01:43:16;102273.66;;;4.01;100.00
19797;BME280;10058;57.654;12.044;2023-11-22T01:45:42;102285.09;;;4.13;100.00
19797;BME280;10058;57.654;12.044;2023-11-22T01:48:07;102266.44;;;4.09;100.00
19797;BME280;10058;57.654;12.044;2023-11-22T01:50:35;102267.59;;;4.12;100.00
19797;BME280;10058;57.654;12.044;2023-11-22T01:53:01;102262.09;;;4.09;100.00
19797;BME280;10058;57.654;12.044;2023-11-22T01:55:27;102256.53;;;4.16;100.00
19797;BME280;10058;57.654;12.044;2023-11-22T01:57:52;102249.72;;;4.18;100.00
19797;BME280;10058;57.654;12.044;2023-11-22T02:00:18;102250.97;;;4.12;100.00
19797;BME280;10058;57.654;12.044;2023-11-22T02:02:44;102254.38;;;4.11;100.00
19797;BME280;10058;57.654;12.044;2023-11-22T02:05:09;102236.06;;;4.11;100.00
19797;BME280;10058;57.654;12.044;2023-11-22T02:07:35;102239.47;;;4.22;100.00
19797;BME280;10058;57.654;12.044;2023-11-22T02:10:00;102232.03;;;4.04;100.00
19797;BME280;10058;57.654;12.044;2023-11-22T02:12:28;102234.59;;;4.14;100.00
19797;BME280;10058;57.654;12.044;2023-11-22T02:14:53;102234.00;;;4.18;100.00
19797;BME280;10058;57.654;12.044;2023-11-22T02:17:18;102238.00;;;4.13;100.00
19797;BME280;10058;57.654;12.044;2023-11-22T02:19:43;102243.44;;;4.16;100.00
19797;BME280;10058;57.654;12.044;2023-11-22T02:22:08;102248.47;;;4.13;100.00
19797;BME280;10058;57.654;12.044;2023-11-22T02:24:34;102237.75;;;4.10;100.00
19797;BME280;10058;57.654;12.044;2023-11-22T02:26:59;102240.44;;;4.00;100.00
19797;BME280;10058;57.654;12.044;2023-11-22T02:29:25;102239.34;;;4.08;100.00
19797;BME280;10058;57.654;12.044;2023-11-22T02:31:50;102233.63;;;4.02;100.00
19797;BME280;10058;57.654;12.044;2023-11-22T02:34:15;102234.78;;;4.06;100.00
19797;BME280;10058;57.654;12.044;2023-11-22T02:36:43;102221.81;;;4.07;100.00
19797;BME280;10058;57.654;12.044;2023-11-22T02:39:08;102212.03;;;4.16;100.00
19797;BME280;10058;57.654;12.044;2023-11-22T02:41:34;102207.28;;;4.11;100.00
19797;BME280;10058;57.654;12.044;2023-11-22T02:44:00;102207.72;;;4.05;100.00
19797;BME280;10058;57.654;12.044;2023-11-22T02:46:25;102199.97;;;3.95;100.00
19797;BME280;10058;57.654;12.044;2023-11-22T02:48:51;102189.94;;;3.90;100.00
19797;BME280;10058;57.654;12.044;2023-11-22T02:51:17;102178.31;;;3.86;100.00
19797;BME280;10058;57.654;12.044;2023-11-22T02:53:42;102175.84;;;3.99;100.00
19797;BME280;10058;57.654;12.044;2023-11-22T02:56:10;102181.78;;;3.97;100.00
19797;BME280;10058;57.654;12.044;2023-11-22T02:58:35;102185.97;;;3.95;100.00
19797;BME280;10058;57.654;12.044;2023-11-22T03:01:01;102173.81;;;3.95;100.00
19797;BME280;10058;57.654;12.044;2023-11-22T03:03:26;102174.03;;;3.98;100.00
19797;BME280;10058;57.654;12.044;2023-11-22T03:05:51;102171.06;;;3.94;100.00
19797;BME280;10058;57.654;12.044;2023-11-22T03:08:16;102169.25;;;4.04;100.00
19797;BME280;10058;57.654;12.044;2023-11-22T03:10:42;102171.97;;;3.94;100.00
19797;BME280;10058;57.654;12.044;2023-11-22T03:13:07;102172.44;;;4.00;100.00
19797;BME280;10058;57.654;12.044;2023-11-22T03:15:33;102181.53;;;4.05;100.00
19797;BME280;10058;57.654;12.044;2023-11-22T03:17:59;102161.16;;;4.01;100.00
19797;BME280;10058;57.654;12.044;2023-11-22T03:20:24;102155.25;;;3.92;100.00
19797;BME280;10058;57.654;12.044;2023-11-22T03:22:50;102142.84;;;3.78;100.00
19797;BME280;10058;57.654;12.044;2023-11-22T03:25:15;102130.56;;;3.77;100.00
19797;BME280;10058;57.654;12.044;2023-11-22T03:27:40;102129.59;;;3.65;100.00
19797;BME280;10058;57.654;12.044;2023-11-22T03:30:06;102141.03;;;3.43;100.00
19797;BME280;10058;57.654;12.044;2023-11-22T03:32:36;102117.25;;;3.40;100.00
19797;BME280;10058;57.654;12.044;2023-11-22T03:35:03;102125.13;;;3.19;100.00
19797;BME280;10058;57.654;12.044;2023-11-22T03:37:30;102115.84;;;3.22;100.00
19797;BME280;10058;57.654;12.044;2023-11-22T03:39:55;102097.91;;;3.27;100.00
19797;BME280;10058;57.654;12.044;2023-11-22T03:42:20;102102.66;;;3.21;100.00
19797;BME280;10058;57.654;12.044;2023-11-22T03:44:46;102094.53;;;3.39;100.00
19797;BME280;10058;57.654;12.044;2023-11-22T03:47:11;102097.44;;;3.32;100.00
19797;BME280;10058;57.654;12.044;2023-11-22T03:49:39;102117.25;;;3.40;100.00
19797;BME280;10058;57.654;12.044;2023-11-22T03:52:04;102119.09;;;3.41;100.00
19797;BME280;10058;57.654;12.044;2023-11-22T03:54:29;102119.50;;;3.36;100.00
19797;BME280;10058;57.654;12.044;2023-11-22T03:56:55;102141.81;;;3.42;100.00
19797;BME280;10058;57.654;12.044;2023-11-22T03:59:20;102109.72;;;3.33;100.00
19797;BME280;10058;57.654;12.044;2023-11-22T04:01:45;102118.84;;;3.38;100.00
19797;BME280;10058;57.654;12.044;2023-11-22T04:04:10;102107.13;;;3.33;100.00
19797;BME280;10058;57.654;12.044;2023-11-22T04:06:36;102114.31;;;3.14;100.00
19797;BME280;10058;57.654;12.044;2023-11-22T04:09:01;102096.75;;;3.23;100.00
19797;BME280;10058;57.654;12.044;2023-11-22T04:11:27;102109.28;;;3.27;100.00
19797;BME280;10058;57.654;12.044;2023-11-22T04:13:54;102096.41;;;3.30;100.00
19797;BME280;10058;57.654;12.044;2023-11-22T04:16:19;102105.13;;;3.19;100.00
19797;BME280;10058;57.654;12.044;2023-11-22T04:18:44;102090.41;;;3.31;100.00
19797;BME280;10058;57.654;12.044;2023-11-22T04:21:09;102103.31;;;3.18;100.00
19797;BME280;10058;57.654;12.044;2023-11-22T04:23:34;102101.34;;;3.37;100.00
19797;BME280;10058;57.654;12.044;2023-11-22T04:26:00;102088.81;;;3.33;100.00
19797;BME280;10058;57.654;12.044;2023-11-22T04:28:25;102089.78;;;3.45;100.00
19797;BME280;10058;57.654;12.044;2023-11-22T04:30:51;102081.06;;;3.68;100.00
19797;BME280;10058;57.654;12.044;2023-11-22T04:33:17;102068.47;;;3.63;100.00
19797;BME280;10058;57.654;12.044;2023-11-22T04:35:42;102073.88;;;3.54;100.00
19797;BME280;10058;57.654;12.044;2023-11-22T04:38:07;102082.75;;;3.68;100.00
19797;BME280;10058;57.654;12.044;2023-11-22T04:40:33;102081.38;;;3.49;100.00
19797;BME280;10058;57.654;12.044;2023-11-22T04:42:58;102093.66;;;3.50;100.00
19797;BME280;10058;57.654;12.044;2023-11-22T04:45:24;102105.00;;;3.39;100.00
19797;BME280;10058;57.654;12.044;2023-11-22T04:47:49;102101.59;;;3.40;100.00
19797;BME280;10058;57.654;12.044;2023-11-22T04:50:14;102103.41;;;3.41;100.00
19797;BME280;10058;57.654;12.044;2023-11-22T04:52:39;102124.78;;;3.47;100.00
19797;BME280;10058;57.654;12.044;2023-11-22T04:55:05;102123.06;;;3.48;100.00
19797;BME280;10058;57.654;12.044;2023-11-22T04:57:30;102100.13;;;3.44;100.00
19797;BME280;10058;57.654;12.044;2023-11-22T04:59:55;102096.91;;;3.36;100.00
19797;BME280;10058;57.654;12.044;2023-11-22T05:02:20;102101.97;;;3.23;100.00
19797;BME280;10058;57.654;12.044;2023-11-22T05:04:45;102081.22;;;3.36;100.00
19797;BME280;10058;57.654;12.044;2023-11-22T05:07:15;102074.06;;;3.34;100.00
19797;BME280;10058;57.654;12.044;2023-11-22T05:09:40;102062.03;;;3.47;100.00
19797;BME280;10058;57.654;12.044;2023-11-22T05:12:06;102045.78;;;3.28;100.00
19797;BME280;10058;57.654;12.044;2023-11-22T05:14:31;102036.13;;;3.50;100.00
19797;BME280;10058;57.654;12.044;2023-11-22T05:16:56;102029.09;;;3.49;100.00
19797;BME280;10058;57.654;12.044;2023-11-22T05:19:22;102030.66;;;3.47;100.00
19797;BME280;10058;57.654;12.044;2023-11-22T05:21:47;102018.88;;;3.53;100.00
19797;BME280;10058;57.654;12.044;2023-11-22T05:24:12;102006.59;;;3.52;100.00
19797;BME280;10058;57.654;12.044;2023-11-22T05:26:37;101990.91;;;3.52;100.00
19797;BME280;10058;57.654;12.044;2023-11-22T05:29:03;101987.03;;;3.46;100.00
19797;BME280;10058;57.654;12.044;2023-11-22T05:31:30;101987.94;;;3.35;100.00
19797;BME280;10058;57.654;12.044;2023-11-22T05:33:55;102003.84;;;3.38;100.00
19797;BME280;10058;57.654;12.044;2023-11-22T05:36:20;102007.50;;;3.29;100.00
19797;BME280;10058;57.654;12.044;2023-11-22T05:38:45;102017.13;;;3.30;100.00
19797;BME280;10058;57.654;12.044;2023-11-22T05:41:10;102028.16;;;3.37;100.00
19797;BME280;10058;57.654;12.044;2023-11-22T05:43:36;102040.19;;;3.35;100.00
19797;BME280;10058;57.654;12.044;2023-11-22T05:46:04;102028.66;;;3.55;100.00
19797;BME280;10058;57.654;12.044;2023-11-22T05:48:30;102018.19;;;3.43;100.00
19797;BME280;10058;57.654;12.044;2023-11-22T05:50:55;102019.09;;;3.56;100.00
19797;BME280;10058;57.654;12.044;2023-11-22T05:53:20;102013.88;;;3.56;100.00
19797;BME280;10058;57.654;12.044;2023-11-22T05:55:46;102011.72;;;3.62;100.00
19797;BME280;10058;57.654;12.044;2023-11-22T05:58:12;101996.38;;;3.55;100.00
19797;BME280;10058;57.654;12.044;2023-11-22T06:00:41;102001.28;;;3.62;100.00
19797;BME280;10058;57.654;12.044;2023-11-22T06:03:06;102014.47;;;3.75;100.00
19797;BME280;10058;57.654;12.044;2023-11-22T06:05:31;102015.50;;;3.77;100.00
19797;BME280;10058;57.654;12.044;2023-11-22T06:07:57;102022.97;;;3.84;100.00
19797;BME280;10058;57.654;12.044;2023-11-22T06:10:22;102022.31;;;3.98;100.00
19797;BME280;10058;57.654;12.044;2023-11-22T06:12:47;102006.16;;;3.92;100.00
19797;BME280;10058;57.654;12.044;2023-11-22T06:15:13;102010.94;;;3.86;100.00
19797;BME280;10058;57.654;12.044;2023-11-22T06:17:38;102010.03;;;3.97;100.00
19797;BME280;10058;57.654;12.044;2023-11-22T06:20:03;102011.63;;;3.95;100.00
19797;BME280;10058;57.654;12.044;2023-11-22T06:22:29;102001.38;;;3.98;100.00
19797;BME280;10058;57.654;12.044;2023-11-22T06:24:54;102007.06;;;4.04;100.00
19797;BME280;10058;57.654;12.044;2023-11-22T06:27:19;102007.41;;;3.97;100.00
19797;BME280;10058;57.654;12.044;2023-11-22T06:29:45;102009.91;;;4.07;100.00
19797;BME280;10058;57.654;12.044;2023-11-22T06:32:11;102003.59;;;4.17;100.00
19797;BME280;10058;57.654;12.044;2023-11-22T06:34:37;102010.94;;;3.98;100.00
19797;BME280;10058;57.654;12.044;2023-11-22T06:37:02;101999.50;;;4.20;100.00
19797;BME280;10058;57.654;12.044;2023-11-22T06:39:27;101987.34;;;4.21;100.00
19797;BME280;10058;57.654;12.044;2023-11-22T06:41:52;101985.94;;;4.38;100.00
19797;BME280;10058;57.654;12.044;2023-11-22T06:44:18;101984.22;;;4.38;100.00
19797;BME280;10058;57.654;12.044;2023-11-22T06:46:43;101959.88;;;4.39;100.00
19797;BME280;10058;57.654;12.044;2023-11-22T06:49:08;101955.31;;;4.37;100.00
19797;BME280;10058;57.654;12.044;2023-11-22T06:51:34;101951.56;;;4.45;100.00
19797;BME280;10058;57.654;12.044;2023-11-22T06:53:59;101941.88;;;4.44;100.00
19797;BME280;10058;57.654;12.044;2023-11-22T06:56:24;101948.41;;;4.62;100.00
19797;BME280;10058;57.654;12.044;2023-11-22T06:58:49;101944.09;;;4.63;100.00
19797;BME280;10058;57.654;12.044;2023-11-22T07:01:16;101932.75;;;4.75;100.00
19797;BME280;10058;57.654;12.044;2023-11-22T07:03:41;101916.66;;;4.82;100.00
19797;BME280;10058;57.654;12.044;2023-11-22T07:06:07;101932.56;;;4.85;100.00
19797;BME280;10058;57.654;12.044;2023-11-22T07:08:32;101928.94;;;4.83;100.00
19797;BME280;10058;57.654;12.044;2023-11-22T07:10:58;101917.50;;;4.95;100.00
19797;BME280;10058;57.654;12.044;2023-11-22T07:13:23;101915.44;;;4.90;100.00
19797;BME280;10058;57.654;12.044;2023-11-22T07:15:49;101921.53;;;5.03;100.00
19797;BME280;10058;57.654;12.044;2023-11-22T07:18:15;101925.16;;;5.05;100.00
19797;BME280;10058;57.654;12.044;2023-11-22T07:20:41;101913.38;;;5.11;100.00
19797;BME280;10058;57.654;12.044;2023-11-22T07:23:06;101898.25;;;5.07;100.00
19797;BME280;10058;57.654;12.044;2023-11-22T07:25:31;101893.03;;;5.20;100.00
19797;BME280;10058;57.654;12.044;2023-11-22T07:27:57;101894.94;;;5.23;100.00
19797;BME280;10058;57.654;12.044;2023-11-22T07:30:22;101888.72;;;5.34;100.00
19797;BME280;10058;57.654;12.044;2023-11-22T07:32:54;101885.25;;;5.22;100.00
19797;BME280;10058;57.654;12.044;2023-11-22T07:35:20;101892.53;;;5.39;100.00
19797;BME280;10058;57.654;12.044;2023-11-22T07:37:45;101880.16;;;5.50;100.00
19797;BME280;10058;57.654;12.044;2023-11-22T07:40:11;101872.97;;;5.60;100.00
19797;BME280;10058;57.654;12.044;2023-11-22T07:42:38;101859.25;;;5.65;100.00
19797;BME280;10058;57.654;12.044;2023-11-22T07:45:04;101850.16;;;5.59;100.00
19797;BME280;10058;57.654;12.044;2023-11-22T07:47:29;101856.13;;;5.70;100.00
19797;BME280;10058;57.654;12.044;2023-11-22T07:49:54;101854.78;;;5.90;100.00
19797;BME280;10058;57.654;12.044;2023-11-22T07:52:23;101850.34;;;5.89;100.00
19797;BME280;10058;57.654;12.044;2023-11-22T07:54:54;101835.38;;;6.01;100.00
19797;BME280;10058;57.654;12.044;2023-11-22T07:57:20;101819.84;;;6.04;100.00
19797;BME280;10058;57.654;12.044;2023-11-22T07:59:45;101823.41;;;6.19;100.00
19797;BME280;10058;57.654;12.044;2023-11-22T08:02:12;101823.84;;;6.12;100.00
19797;BME280;10058;57.654;12.044;2023-11-22T08:04:37;101822.75;;;6.23;100.00
19797;BME280;10058;57.654;12.044;2023-11-22T08:07:03;101811.44;;;6.24;100.00
19797;BME280;10058;57.654;12.044;2023-11-22T08:09:28;101805.03;;;6.19;100.00
19797;BME280;10058;57.654;12.044;2023-11-22T08:11:57;101790.28;;;6.21;100.00
19797;BME280;10058;57.654;12.044;2023-11-22T08:14:23;101793.38;;;6.44;100.00
19797;BME280;10058;57.654;12.044;2023-11-22T08:16:52;101791.50;;;6.56;100.00
19797;BME280;10058;57.654;12.044;2023-11-22T08:19:17;101784.25;;;6.52;100.00
19797;BME280;10058;57.654;12.044;2023-11-22T08:21:42;101775.38;;;6.50;100.00
19797;BME280;10058;57.654;12.044;2023-11-22T08:24:08;101767.78;;;6.54;100.00
19797;BME280;10058;57.654;12.044;2023-11-22T08:26:33;101763.25;;;6.52;100.00
19797;BME280;10058;57.654;12.044;2023-11-22T08:28:58;101760.91;;;6.71;100.00
19797;BME280;10058;57.654;12.044;2023-11-22T08:31:23;101759.63;;;6.64;100.00
19797;BME280;10058;57.654;12.044;2023-11-22T08:33:48;101744.75;;;6.65;100.00
19797;BME280;10058;57.654;12.044;2023-11-22T08:36:14;101716.50;;;6.61;100.00
19797;BME280;10058;57.654;12.044;2023-11-22T08:38:39;101723.75;;;6.65;100.00
19797;BME280;10058;57.654;12.044;2023-11-22T08:41:08;101710.41;;;6.62;100.00
19797;BME280;10058;57.654;12.044;2023-11-22T08:43:38;101704.34;;;6.63;100.00
19797;BME280;10058;57.654;12.044;2023-11-22T08:46:03;101688.59;;;6.63;100.00
19797;BME280;10058;57.654;12.044;2023-11-22T08:48:34;101676.59;;;6.83;100.00
19797;BME280;10058;57.654;12.044;2023-11-22T08:51:00;101668.13;;;6.72;100.00
19797;BME280;10058;57.654;12.044;2023-11-22T08:53:25;101666.91;;;6.82;100.00
19797;BME280;10058;57.654;12.044;2023-11-22T08:55:51;101662.19;;;6.76;100.00
19797;BME280;10058;57.654;12.044;2023-11-22T08:58:18;101666.63;;;6.77;100.00
19797;BME280;10058;57.654;12.044;2023-11-22T09:00:43;101658.66;;;6.90;100.00
19797;BME280;10058;57.654;12.044;2023-11-22T09:03:10;101658.53;;;6.73;100.00
19797;BME280;10058;57.654;12.044;2023-11-22T09:05:38;101642.88;;;6.90;100.00
19797;BME280;10058;57.654;12.044;2023-11-22T09:08:03;101623.31;;;6.85;100.00
19797;BME280;10058;57.654;12.044;2023-11-22T09:10:29;101629.16;;;6.96;100.00
19797;BME280;10058;57.654;12.044;2023-11-22T09:12:55;101623.16;;;6.82;100.00
19797;BME280;10058;57.654;12.044;2023-11-22T09:15:24;101627.13;;;6.90;100.00
19797;BME280;10058;57.654;12.044;2023-11-22T09:17:51;101587.00;;;6.78;100.00
19797;BME280;10058;57.654;12.044;2023-11-22T09:20:18;101586.84;;;6.75;100.00
19797;BME280;10058;57.654;12.044;2023-11-22T09:22:48;101568.50;;;6.91;100.00
19797;BME280;10058;57.654;12.044;2023-11-22T09:25:14;101562.72;;;6.98;100.00
19797;BME280;10058;57.654;12.044;2023-11-22T09:27:41;101564.19;;;6.93;100.00
19797;BME280;10058;57.654;12.044;2023-11-22T09:30:06;101544.56;;;6.71;100.00
19797;BME280;10058;57.654;12.044;2023-11-22T09:32:36;101539.41;;;7.05;100.00
19797;BME280;10058;57.654;12.044;2023-11-22T09:35:03;101500.56;;;6.99;100.00
19797;BME280;10058;57.654;12.044;2023-11-22T09:37:35;101499.16;;;6.89;100.00
19797;BME280;10058;57.654;12.044;2023-11-22T09:40:03;101494.56;;;7.02;100.00
19797;BME280;10058;57.654;12.044;2023-11-22T09:42:33;101478.44;;;6.95;100.00
19797;BME280;10058;57.654;12.044;2023-11-22T09:44:59;101498.19;;;7.04;100.00
19797;BME280;10058;57.654;12.044;2023-11-22T09:47:24;101472.53;;;6.99;100.00
19797;BME280;10058;57.654;12.044;2023-11-22T09:49:51;101458.25;;;6.94;100.00
19797;BME280;10058;57.654;12.044;2023-11-22T09:52:17;101478.94;;;7.05;100.00
19797;BME280;10058;57.654;12.044;2023-11-22T09:54:48;101462.56;;;7.10;100.00
19797;BME280;10058;57.654;12.044;2023-11-22T09:57:14;101445.28;;;6.97;100.00
19797;BME280;10058;57.654;12.044;2023-11-22T09:59:42;101432.78;;;7.10;100.00
19797;BME280;10058;57.654;12.044;2023-11-22T10:02:07;101432.91;;;7.13;100.00
19797;BME280;10058;57.654;12.044;2023-11-22T10:04:33;101412.84;;;6.97;100.00
19797;BME280;10058;57.654;12.044;2023-11-22T10:06:59;101407.63;;;7.15;100.00
19797;BME280;10058;57.654;12.044;2023-11-22T10:09:25;101415.31;;;7.28;100.00
19797;BME280;10058;57.654;12.044;2023-11-22T10:11:52;101392.66;;;7.14;100.00
19797;BME280;10058;57.654;12.044;2023-11-22T10:14:22;101397.28;;;7.18;100.00
19797;BME280;10058;57.654;12.044;2023-11-22T10:16:57;101393.66;;;7.16;100.00
19797;BME280;10058;57.654;12.044;2023-11-22T10:19:22;101395.47;;;7.17;100.00
19797;BME280;10058;57.654;12.044;2023-11-22T10:21:59;101374.59;;;7.20;100.00
19797;BME280;10058;57.654;12.044;2023-11-22T10:24:29;101369.16;;;7.17;100.00
19797;BME280;10058;57.654;12.044;2023-11-22T10:26:55;101372.34;;;7.10;100.00
19797;BME280;10058;57.654;12.044;2023-11-22T10:29:20;101347.72;;;7.25;100.00
19797;BME280;10058;57.654;12.044;2023-11-22T10:31:45;101348.47;;;7.41;100.00
19797;BME280;10058;57.654;12.044;2023-11-22T10:34:11;101339.44;;;7.18;100.00
19797;BME280;10058;57.654;12.044;2023-11-22T10:36:36;101344.84;;;7.21;100.00
19797;BME280;10058;57.654;12.044;2023-11-22T10:39:01;101318.25;;;7.15;100.00
19797;BME280;10058;57.654;12.044;2023-11-22T10:41:27;101335.22;;;7.21;100.00
19797;BME280;10058;57.654;12.044;2023-11-22T10:43:52;101347.25;;;7.34;100.00
19797;BME280;10058;57.654;12.044;2023-11-22T10:46:21;101337.13;;;7.42;100.00
19797;BME280;10058;57.654;12.044;2023-11-22T10:48:46;101352.81;;;7.40;100.00
19797;BME280;10058;57.654;12.044;2023-11-22T10:51:12;101316.91;;;7.23;100.00
19797;BME280;10058;57.654;12.044;2023-11-22T10:53:37;101297.06;;;7.29;100.00
19797;BME280;10058;57.654;12.044;2023-11-22T10:56:09;101310.44;;;7.34;100.00
19797;BME280;10058;57.654;12.044;2023-11-22T10:58:36;101326.97;;;7.31;100.00
19797;BME280;10058;57.654;12.044;2023-11-22T11:01:06;101302.13;;;7.25;100.00
19797;BME280;10058;57.654;12.044;2023-11-22T11:03:31;101293.16;;;7.39;100.00
19797;BME280;10058;57.654;12.044;2023-11-22T11:06:04;101257.53;;;7.28;100.00
19797;BME280;10058;57.654;12.044;2023-11-22T11:08:30;101244.34;;;7.44;100.00
19797;BME280;10058;57.654;12.044;2023-11-22T11:10:55;101214.44;;;7.42;100.00
19797;BME280;10058;57.654;12.044;2023-11-22T11:13:24;101232.09;;;7.64;100.00
19797;BME280;10058;57.654;12.044;2023-11-22T11:15:50;101232.28;;;7.49;100.00
19797;BME280;10058;57.654;12.044;2023-11-22T11:18:16;101210.00;;;7.41;100.00
19797;BME280;10058;57.654;12.044;2023-11-22T11:20:57;101204.75;;;7.60;100.00
19797;BME280;10058;57.654;12.044;2023-11-22T11:23:24;101202.63;;;7.34;100.00
19797;BME280;10058;57.654;12.044;2023-11-22T11:25:50;101175.66;;;7.38;100.00
19797;BME280;10058;57.654;12.044;2023-11-22T11:28:17;101178.06;;;7.33;100.00
19797;BME280;10058;57.654;12.044;2023-11-22T11:33:14;101202.72;;;7.18;100.00
19797;BME280;10058;57.654;12.044;2023-11-22T11:35:50;101203.31;;;7.30;100.00
19797;BME280;10058;57.654;12.044;2023-11-22T11:38:21;101177.91;;;7.30;100.00
19797;BME280;10058;57.654;12.044;2023-11-22T11:40:51;101165.91;;;7.18;100.00
19797;BME280;10058;57.654;12.044;2023-11-22T11:46:03;101150.94;;;7.34;100.00
19797;BME280;10058;57.654;12.044;2023-11-22T11:48:33;101160.66;;;7.18;100.00
19797;BME280;10058;57.654;12.044;2023-11-22T11:50:58;101170.84;;;7.29;100.00
19797;BME280;10058;57.654;12.044;2023-11-22T11:53:23;101164.56;;;7.26;100.00
19797;BME280;10058;57.654;12.044;2023-11-22T11:55:48;101169.28;;;7.33;100.00
19797;BME280;10058;57.654;12.044;2023-11-22T11:58:16;101148.41;;;7.18;100.00
19797;BME280;10058;57.654;12.044;2023-11-22T12:00:42;101134.94;;;7.30;100.00
19797;BME280;10058;57.654;12.044;2023-11-22T12:03:07;101133.84;;;7.25;100.00
19797;BME280;10058;57.654;12.044;2023-11-22T12:05:34;101121.25;;;7.37;100.00
19797;BME280;10058;57.654;12.044;2023-11-22T12:08:00;101126.16;;;7.49;100.00
19797;BME280;10058;57.654;12.044;2023-11-22T12:10:25;101109.34;;;7.45;100.00
19797;BME280;10058;57.654;12.044;2023-11-22T12:12:50;101097.06;;;7.44;100.00
19797;BME280;10058;57.654;12.044;2023-11-22T12:15:15;101098.50;;;7.57;100.00
19797;BME280;10058;57.654;12.044;2023-11-22T12:17:40;101097.06;;;7.44;100.00
19797;BME280;10058;57.654;12.044;2023-11-22T12:20:10;101095.56;;;7.31;100.00
19797;BME280;10058;57.654;12.044;2023-11-22T12:22:36;101098.28;;;7.33;100.00
19797;BME280;10058;57.654;12.044;2023-11-22T12:25:01;101103.28;;;7.27;100.00
19797;BME280;10058;57.654;12.044;2023-11-22T12:27:26;101083.47;;;7.16;100.00
19797;BME280;10058;57.654;12.044;2023-11-22T12:29:52;101083.06;;;7.26;100.00
19797;BME280;10058;57.654;12.044;2023-11-22T12:32:22;101102.31;;;7.44;100.00
19797;BME280;10058;57.654;12.044;2023-11-22T12:34:47;101078.22;;;7.35;100.00
19797;BME280;10058;57.654;12.044;2023-11-22T12:37:13;101075.44;;;7.32;100.00
19797;BME280;10058;57.654;12.044;2023-11-22T12:39:40;101074.06;;;7.40;100.00